Time;durP1;ratioP1;P1;durP2;ratioP2;P2;SDS_P1;SDS_P2;PMS_P1;PMS_P2;Temp;Humidity;BMP_temperature;BMP_pressure;BME280_temperature;BME280_humidity;BME280_pressure;Samples;Min_cycle;Max_cycle;Signal;HPM_P1;HPM_P2
2022/03/29 00:02:25;;;;;;;12.30;6.45;;;;;;;13.09;55.21;99882.94;4992308;28;20100;-66
2022/03/29 00:04:50;;;;;;;13.50;6.97;;;;;;;13.04;55.39;99882.25;4993130;28;20022;-66
2022/03/29 00:07:16;;;;;;;13.55;6.72;;;;;;;13.07;55.57;99881.25;4993198;28;20034;-66
2022/03/29 00:09:41;;;;;;;12.40;7.10;;;;;;;12.96;58.09;99879.00;4992785;28;20046;-66
2022/03/29 00:12:07;;;;;;;11.65;6.63;;;;;;;12.86;60.44;99880.38;4992705;28;20029;-66
2022/03/29 00:14:32;;;;;;;14.52;7.82;;;;;;;12.65;60.38;99867.94;4992810;28;20030;-65
2022/03/29 00:16:57;;;;;;;15.05;7.10;;;;;;;12.49;61.40;99868.66;4992628;28;20452;-65
2022/03/29 00:19:23;;;;;;;11.18;7.00;;;;;;;12.31;63.17;99859.66;4993029;28;20022;-65
2022/03/29 00:21:48;;;;;;;15.98;7.82;;;;;;;12.19;62.57;99865.50;4992756;28;20027;-65
2022/03/29 00:24:14;;;;;;;13.32;7.15;;;;;;;12.20;63.41;99851.25;4993003;28;20487;-65
2022/03/29 00:26:39;;;;;;;11.77;6.88;;;;;;;12.15;64.34;99849.69;4992790;28;20034;-65
2022/03/29 00:29:05;;;;;;;13.55;7.55;;;;;;;12.07;63.28;99844.69;4992734;28;20033;-66
2022/03/29 00:31:30;;;;;;;15.60;6.75;;;;;;;12.00;64.58;99845.84;4992432;28;20034;-66
2022/03/29 00:33:55;;;;;;;13.40;7.10;;;;;;;11.88;66.08;99849.03;4992892;28;20038;-65
2022/03/29 00:36:21;;;;;;;13.15;7.90;;;;;;;11.78;65.89;99834.31;4992799;28;20154;-65
2022/03/29 00:38:46;;;;;;;9.95;6.57;;;;;;;11.71;66.42;99827.53;4992362;28;20026;-65
2022/03/29 00:41:12;;;;;;;12.55;6.90;;;;;;;11.67;67.96;99834.78;4992064;28;20018;-65
2022/03/29 00:43:38;;;;;;;11.52;6.72;;;;;;;11.58;69.12;99826.25;4992470;28;20390;-65
2022/03/29 00:46:03;;;;;;;17.33;7.88;;;;;;;11.53;70.11;99821.09;4992266;28;20030;-65
2022/03/29 00:48:29;;;;;;;12.82;6.45;;;;;;;11.27;70.20;99831.88;4992308;28;20046;-65
2022/03/29 00:50:55;;;;;;;15.70;7.35;;;;;;;11.53;67.26;99822.91;4992499;28;20517;-65
2022/03/29 00:53:22;;;;;;;12.18;7.30;;;;;;;11.50;65.90;99823.00;4992429;28;20581;-65
2022/03/29 00:55:48;;;;;;;13.82;6.72;;;;;;;11.45;66.16;99819.69;4974911;28;20034;-65
2022/03/29 00:58:15;;;;;;;12.15;5.78;;;;;;;11.30;67.51;99825.59;4991809;28;20382;-65
2022/03/29 01:00:41;;;;;;;13.43;7.40;;;;;;;11.13;67.69;99820.03;4992136;28;20028;-65
2022/03/29 01:03:07;;;;;;;13.65;6.72;;;;;;;11.07;68.70;99817.63;4992250;28;20030;-65
2022/03/29 01:05:32;;;;;;;12.45;7.22;;;;;;;11.07;68.39;99815.78;4992302;28;20097;-65
2022/03/29 01:07:59;;;;;;;13.45;6.70;;;;;;;11.13;68.14;99812.03;4992177;28;20105;-65
2022/03/29 01:10:25;;;;;;;12.45;6.72;;;;;;;11.12;68.25;99810.31;4992089;28;20029;-65
2022/03/29 01:12:52;;;;;;;11.43;6.22;;;;;;;11.08;68.60;99787.41;4992053;28;20478;-65
2022/03/29 01:15:19;;;;;;;11.75;6.30;;;;;;;11.16;68.77;99806.59;4990965;28;20022;-65
2022/03/29 01:17:49;;;;;;;12.45;7.20;;;;;;;11.22;69.17;99790.41;4990879;28;20019;-65
2022/03/29 01:20:24;;;;;;;11.65;7.07;;;;;;;11.32;68.86;99797.97;4992206;28;20474;-65
2022/03/29 01:22:52;;;;;;;13.05;6.80;;;;;;;11.37;69.40;99792.44;4992130;28;20108;-66
2022/03/29 01:25:23;;;;;;;11.30;6.25;;;;;;;11.40;70.63;99800.34;4992112;28;20027;-66
2022/03/29 01:27:50;;;;;;;12.77;7.22;;;;;;;11.38;71.00;99796.88;4991643;28;20512;-66
2022/03/29 01:30:16;;;;;;;11.23;6.13;;;;;;;11.27;71.94;99775.09;4992175;28;20029;-66
2022/03/29 01:32:47;;;;;;;14.20;6.88;;;;;;;11.26;72.42;99781.38;4989410;28;20022;-66
2022/03/29 01:35:13;;;;;;;12.63;6.75;;;;;;;11.07;71.25;99769.69;4991997;28;20030;-66
2022/03/29 01:37:39;;;;;;;15.70;6.45;;;;;;;11.10;71.21;99782.88;4991983;28;20359;-66
2022/03/29 01:40:16;;;;;;;12.88;6.65;;;;;;;11.02;71.07;99766.34;4991809;28;20034;-65
2022/03/29 01:42:59;;;;;;;14.43;6.95;;;;;;;10.97;70.96;99769.16;4992193;28;20367;-65
2022/03/29 01:45:27;;;;;;;13.57;6.95;;;;;;;10.99;70.79;99756.69;4991919;28;20026;-65
2022/03/29 01:47:53;;;;;;;14.45;6.13;;;;;;;10.99;71.43;99761.16;4991875;28;20026;-65
2022/03/29 01:50:19;;;;;;;14.45;7.93;;;;;;;11.02;71.95;99755.72;4991791;28;20498;-65
2022/03/29 01:52:46;;;;;;;10.40;6.63;;;;;;;11.08;71.18;99758.13;4991871;28;20385;-65
2022/03/29 01:55:14;;;;;;;11.40;6.05;;;;;;;11.01;71.41;99757.50;4991777;28;20076;-66
2022/03/29 01:57:40;;;;;;;13.25;6.85;;;;;;;10.94;71.85;99755.13;4993041;28;20118;-66
2022/03/29 02:02:52;;;;;;;11.75;5.80;;;;;;;10.88;73.82;99760.66;4995650;28;20033;-66
2022/03/29 02:05:19;;;;;;;10.18;5.72;;;;;;;10.88;73.73;99753.56;4994775;28;20022;-66
2022/03/29 02:07:45;;;;;;;11.73;6.78;;;;;;;10.83;73.14;99754.66;4995599;28;20037;-65
2022/03/29 02:10:11;;;;;;;10.95;6.57;;;;;;;10.75;73.34;99757.63;4992347;28;20033;-66
2022/03/29 02:12:36;;;;;;;12.45;6.15;;;;;;;10.59;73.00;99737.84;4995576;28;20049;-66
2022/03/29 02:15:03;;;;;;;15.38;6.35;;;;;;;10.52;72.41;99744.28;4994989;28;20018;-65
2022/03/29 02:17:28;;;;;;;14.38;7.22;;;;;;;10.54;73.18;99756.59;4994727;28;20034;-66
2022/03/29 02:19:54;;;;;;;15.45;6.68;;;;;;;10.56;73.08;99752.09;4994683;28;20052;-67
2022/03/29 02:22:19;;;;;;;12.20;6.45;;;;;;;10.53;73.50;99762.84;4977661;28;20112;-66
2022/03/29 02:24:45;;;;;;;13.45;6.10;;;;;;;10.55;72.88;99747.72;4994929;28;20093;-65
2022/03/29 02:27:10;;;;;;;11.57;6.30;;;;;;;10.53;73.33;99741.59;4994860;28;20022;-66
2022/03/29 02:29:36;;;;;;;15.43;7.85;;;;;;;10.55;72.86;99745.06;4995201;28;20109;-66
2022/03/29 02:32:01;;;;;;;13.48;6.30;;;;;;;10.51;73.46;99746.06;4994800;28;20030;-66
2022/03/29 02:34:27;;;;;;;12.65;6.18;;;;;;;10.46;74.40;99737.41;4994744;28;20802;-66
2022/03/29 02:36:52;;;;;;;11.25;5.60;;;;;;;10.41;75.04;99741.16;4994257;28;20030;-66
2022/03/29 02:39:18;;;;;;;12.10;6.75;;;;;;;10.31;74.91;99740.59;4994656;28;20022;-66
2022/03/29 02:41:43;;;;;;;13.57;6.15;;;;;;;10.26;75.53;99726.63;4994075;28;20038;-66
2022/03/29 02:44:08;;;;;;;12.82;6.78;;;;;;;10.26;75.47;99733.75;4993330;28;20030;-66
2022/03/29 02:46:34;;;;;;;11.25;5.93;;;;;;;10.27;75.06;99731.03;4994347;28;20030;-66
2022/03/29 02:49:01;;;;;;;11.98;6.30;;;;;;;10.13;74.79;99714.69;4994149;28;20049;-65
2022/03/29 02:51:26;;;;;;;9.55;6.25;;;;;;;10.13;74.73;99730.63;4994718;28;20041;-65
2022/03/29 02:53:52;;;;;;;10.45;6.75;;;;;;;10.22;74.56;99727.66;4994221;28;20022;-65
2022/03/29 02:56:18;;;;;;;13.38;6.68;;;;;;;10.32;73.07;99721.09;4994189;28;20033;-66
2022/03/29 02:58:43;;;;;;;13.20;6.20;;;;;;;10.42;72.53;99709.22;4994360;28;20035;-65
2022/03/29 03:01:08;;;;;;;13.98;6.70;;;;;;;10.46;72.60;99713.47;4994280;28;20030;-66
2022/03/29 03:03:34;;;;;;;19.23;6.32;;;;;;;10.53;71.92;99708.78;4994193;28;20026;-66
2022/03/29 03:06:00;;;;;;;14.02;6.95;;;;;;;10.59;72.46;99709.44;4994306;28;20371;-66
2022/03/29 03:08:25;;;;;;;12.95;6.40;;;;;;;10.60;72.25;99703.19;4976333;28;20018;-66
2022/03/29 03:10:50;;;;;;;11.25;6.75;;;;;;;10.57;73.00;99700.66;4992318;28;20027;-66
2022/03/29 03:13:16;;;;;;;14.80;6.47;;;;;;;10.50;72.83;99704.47;4994255;28;20161;-66
2022/03/29 03:15:42;;;;;;;12.13;5.72;;;;;;;10.41;72.58;99696.81;4993871;28;20411;-66
2022/03/29 03:18:09;;;;;;;12.80;6.70;;;;;;;10.35;72.41;99713.00;4993919;28;20482;-66
2022/03/29 03:20:35;;;;;;;12.70;6.68;;;;;;;10.26;72.56;99702.69;4993720;28;20026;-66
2022/03/29 03:23:01;;;;;;;11.43;6.65;;;;;;;10.24;73.93;99707.22;4993938;28;20030;-66
2022/03/29 03:25:27;;;;;;;10.98;5.75;;;;;;;10.26;73.55;99702.69;4993584;28;20036;-66
2022/03/29 03:27:53;;;;;;;10.90;6.28;;;;;;;10.22;74.18;99706.41;4993556;28;20091;-66
2022/03/29 03:30:18;;;;;;;13.00;6.72;;;;;;;10.32;74.04;99699.84;4993744;28;20028;-66
2022/03/29 03:32:44;;;;;;;12.48;6.53;;;;;;;10.25;75.20;99711.59;4993784;28;20030;-66
2022/03/29 03:35:10;;;;;;;12.43;6.63;;;;;;;10.27;74.87;99707.09;4993553;28;20029;-66
2022/03/29 03:37:36;;;;;;;15.00;7.47;;;;;;;10.25;75.40;99708.06;4976343;28;20452;-66
2022/03/29 03:40:04;;;;;;;11.60;6.68;;;;;;;10.19;75.80;99698.53;4993399;28;20105;-65
2022/03/29 03:42:29;;;;;;;11.60;6.25;;;;;;;10.20;76.42;99696.72;4993710;28;20022;-66
2022/03/29 03:44:57;;;;;;;10.98;6.22;;;;;;;10.18;76.80;99706.56;4993241;28;20100;-65
2022/03/29 03:47:22;;;;;;;14.23;7.22;;;;;;;10.14;76.56;99704.94;4993373;28;20022;-65
2022/03/29 03:49:47;;;;;;;15.52;6.68;;;;;;;10.07;76.27;99704.25;4993042;28;20038;-65
2022/03/29 03:52:13;;;;;;;13.32;8.10;;;;;;;10.06;76.37;99702.53;4993319;28;20026;-65
2022/03/29 03:54:39;;;;;;;11.35;5.95;;;;;;;10.06;76.38;99699.88;4993387;28;20026;-66
2022/03/29 03:57:05;;;;;;;14.23;7.25;;;;;;;10.04;76.71;99688.44;4993129;28;20537;-65
2022/03/29 03:59:31;;;;;;;11.98;6.88;;;;;;;10.07;77.62;99692.75;4993141;28;20113;-66
2022/03/29 04:01:57;;;;;;;19.65;6.82;;;;;;;10.03;77.42;99685.81;4992899;28;20033;-66
2022/03/29 04:04:23;;;;;;;10.98;6.90;;;;;;;10.00;77.00;99670.84;4993140;28;20101;-65
2022/03/29 04:06:48;;;;;;;13.13;7.13;;;;;;;9.94;78.33;99671.06;4992269;28;20122;-66
2022/03/29 04:09:14;;;;;;;11.85;6.18;;;;;;;9.96;79.04;99671.00;4993249;28;20037;-66
2022/03/29 04:11:39;;;;;;;11.55;7.43;;;;;;;10.01;79.19;99669.94;4992905;28;20022;-66
2022/03/29 04:14:05;;;;;;;12.52;7.53;;;;;;;10.00;78.58;99654.91;4992836;28;20026;-66
2022/03/29 04:16:30;;;;;;;15.27;8.07;;;;;;;10.12;77.20;99669.56;4991315;28;20488;-66
2022/03/29 04:18:56;;;;;;;14.20;7.32;;;;;;;10.14;76.92;99673.91;4991914;28;20033;-66
2022/03/29 04:21:22;;;;;;;13.85;7.47;;;;;;;10.12;75.76;99667.78;4992687;28;20030;-66
2022/03/29 04:23:47;;;;;;;16.75;7.10;;;;;;;10.19;74.40;99671.97;4993110;28;20470;-66
2022/03/29 04:26:13;;;;;;;16.77;7.45;;;;;;;10.23;73.92;99659.44;4992737;28;20435;-66
2022/03/29 04:28:38;;;;;;;16.88;7.80;;;;;;;10.21;74.08;99656.81;4993007;28;20041;-66
2022/03/29 04:31:04;;;;;;;11.00;6.63;;;;;;;10.23;74.10;99656.78;4992349;28;20032;-66
2022/03/29 04:33:30;;;;;;;20.95;9.15;;;;;;;10.34;73.18;99658.13;4992647;28;20030;-66
2022/03/29 04:35:56;;;;;;;17.80;9.93;;;;;;;10.35;71.67;99662.50;4992498;28;20034;-65
2022/03/29 04:38:23;;;;;;;14.88;8.02;;;;;;;10.34;71.85;99651.91;4992565;28;20524;-66
2022/03/29 04:40:49;;;;;;;13.10;8.10;;;;;;;10.37;72.36;99649.16;4992224;28;20072;-66
2022/03/29 04:43:15;;;;;;;12.25;7.70;;;;;;;10.34;72.63;99650.13;4992642;28;20037;-65
2022/03/29 04:45:41;;;;;;;15.20;8.10;;;;;;;10.32;71.53;99656.41;4992111;28;20026;-65
2022/03/29 04:48:07;;;;;;;13.93;7.43;;;;;;;10.36;70.89;99653.59;4992668;28;20170;-65
2022/03/29 04:50:32;;;;;;;16.30;7.75;;;;;;;10.30;70.58;99652.94;4992294;28;20030;-66
2022/03/29 04:52:58;;;;;;;12.52;7.35;;;;;;;10.26;69.80;99654.84;4992724;28;20028;-65
2022/03/29 04:55:24;;;;;;;14.00;8.50;;;;;;;10.21;69.85;99653.31;4992355;28;20551;-66
2022/03/29 04:57:50;;;;;;;17.15;8.40;;;;;;;10.13;70.55;99650.06;4974905;28;20038;-64
2022/03/29 05:00:20;;;;;;;14.27;7.93;;;;;;;10.23;69.95;99648.81;4991863;28;20062;-65
2022/03/29 05:02:46;;;;;;;14.63;8.18;;;;;;;10.15;69.35;99643.75;4992446;28;20058;-65
2022/03/29 05:05:13;;;;;;;18.60;9.30;;;;;;;10.19;69.58;99647.16;4992169;28;20069;-65
2022/03/29 05:07:39;;;;;;;15.68;8.35;;;;;;;10.23;69.79;99652.31;4992470;28;20129;-65
2022/03/29 05:10:06;;;;;;;14.43;8.23;;;;;;;10.24;69.78;99643.44;4991605;28;20101;-65
2022/03/29 05:12:48;;;;;;;14.60;7.82;;;;;;;10.24;70.20;99638.13;4992355;28;20034;-65
2022/03/29 05:15:16;;;;;;;13.10;7.93;;;;;;;10.24;69.89;99627.47;4991707;28;20576;-65
2022/03/29 05:17:42;;;;;;;13.43;7.20;;;;;;;10.30;70.64;99647.63;4991997;28;20026;-65
2022/03/29 05:20:10;;;;;;;14.55;7.85;;;;;;;10.26;71.87;99643.38;4992009;28;20035;-65
2022/03/29 05:22:52;;;;;;;17.08;7.32;;;;;;;10.19;72.80;99645.38;4992391;28;20109;-65
2022/03/29 05:25:21;;;;;;;15.35;7.22;;;;;;;10.22;72.65;99650.59;4991738;28;20772;-65
2022/03/29 05:27:47;;;;;;;14.30;7.25;;;;;;;10.24;72.96;99650.53;4991888;28;20030;-65
2022/03/29 05:30:14;;;;;;;15.20;7.60;;;;;;;10.17;73.02;99655.19;4991762;28;20509;-65
2022/03/29 05:32:39;;;;;;;18.92;9.10;;;;;;;10.10;74.40;99651.03;4993418;28;20022;-65
2022/03/29 05:35:08;;;;;;;49.58;19.58;;;;;;;10.07;74.31;99660.84;4995862;28;20037;-65
2022/03/29 05:37:35;;;;;;;62.25;26.63;;;;;;;10.06;74.38;99656.47;4995645;28;20033;-65
2022/03/29 05:40:01;;;;;;;27.70;13.68;;;;;;;10.09;74.08;99659.94;4995916;28;20545;-65
2022/03/29 05:42:26;;;;;;;13.38;8.48;;;;;;;10.07;73.79;99653.78;4995642;28;20037;-65
2022/03/29 05:44:52;;;;;;;29.90;16.02;;;;;;;10.08;73.95;99658.19;4995613;28;20018;-65
2022/03/29 05:50:01;;;;;;;20.92;9.82;;;;;;;10.22;72.09;99657.69;4995427;28;20466;-65
2022/03/29 05:52:28;;;;;;;13.57;7.80;;;;;;;10.26;71.00;99662.81;4995605;28;20030;-65
2022/03/29 05:54:54;;;;;;;14.23;7.53;;;;;;;10.35;71.17;99661.63;4995461;28;20050;-65
2022/03/29 05:57:20;;;;;;;13.80;7.20;;;;;;;10.43;70.38;99649.78;4995382;28;20073;-65
2022/03/29 05:59:45;;;;;;;14.38;8.50;;;;;;;10.52;69.50;99651.22;4995458;28;20026;-65
2022/03/29 06:02:12;;;;;;;14.18;7.75;;;;;;;10.60;69.69;99652.66;4995472;28;20033;-65
2022/03/29 06:04:38;;;;;;;14.00;8.30;;;;;;;10.72;69.22;99650.47;4995296;28;20030;-65
2022/03/29 06:07:04;;;;;;;18.70;9.15;;;;;;;10.77;69.13;99661.78;4994237;28;20022;-65
2022/03/29 06:09:30;;;;;;;16.70;7.75;;;;;;;10.73;69.88;99652.19;4994852;28;20092;-65
2022/03/29 06:11:56;;;;;;;15.93;8.07;;;;;;;10.75;70.19;99650.34;4976533;28;20053;-65
2022/03/29 06:14:22;;;;;;;12.45;7.32;;;;;;;10.77;71.50;99649.38;4994669;28;20038;-65
2022/03/29 06:16:47;;;;;;;15.95;8.40;;;;;;;10.79;71.87;99662.59;4995024;28;20018;-65
2022/03/29 06:19:13;;;;;;;15.25;8.57;;;;;;;10.75;72.20;99672.50;4994900;28;20031;-65
2022/03/29 06:21:40;;;;;;;16.00;7.90;;;;;;;10.82;72.07;99663.34;4995273;28;20033;-65
2022/03/29 06:24:07;;;;;;;14.52;8.63;;;;;;;10.90;71.94;99663.91;4995066;28;20033;-65
2022/03/29 06:26:36;;;;;;;20.50;8.75;;;;;;;10.91;70.93;99668.28;4994774;28;20034;-65
2022/03/29 06:29:05;;;;;;;21.55;9.68;;;;;;;10.86;72.11;99669.38;4994640;28;20137;-65
2022/03/29 06:31:31;;;;;;;16.40;8.68;;;;;;;10.80;73.09;99662.53;4994843;28;20109;-65
2022/03/29 06:33:57;;;;;;;13.15;8.23;;;;;;;10.85;72.15;99659.69;4994647;28;20113;-65
2022/03/29 06:36:22;;;;;;;14.57;8.70;;;;;;;10.85;72.79;99651.72;4995146;28;20050;-65
2022/03/29 06:38:47;;;;;;;14.02;7.55;;;;;;;10.94;74.04;99652.19;4994971;28;20037;-65
2022/03/29 06:41:13;;;;;;;15.20;8.25;;;;;;;11.06;74.57;99656.16;4994624;28;20030;-65
2022/03/29 06:43:40;;;;;;;16.05;8.27;;;;;;;11.18;74.99;99650.34;4994442;28;20383;-65
2022/03/29 06:46:08;;;;;;;15.27;7.47;;;;;;;11.43;72.86;99651.94;4994599;28;20030;-65
2022/03/29 06:48:34;;;;;;;16.73;8.50;;;;;;;11.58;73.00;99656.63;4994440;28;20069;-65
2022/03/29 06:51:00;;;;;;;14.02;7.55;;;;;;;11.62;72.83;99658.22;4977151;28;20116;-65
2022/03/29 06:53:25;;;;;;;15.55;7.57;;;;;;;11.59;73.28;99652.16;4994445;28;20451;-65
2022/03/29 06:55:51;;;;;;;13.70;8.18;;;;;;;11.53;73.21;99652.44;4994598;28;20033;-65
2022/03/29 06:58:18;;;;;;;14.98;8.00;;;;;;;11.61;73.76;99651.16;4994084;28;20114;-65
2022/03/29 07:00:43;;;;;;;19.63;7.93;;;;;;;11.63;73.74;99645.78;4993940;28;20121;-66
2022/03/29 07:03:10;;;;;;;16.95;9.35;;;;;;;11.78;73.24;99659.34;4994174;28;20164;-65
2022/03/29 07:05:38;;;;;;;13.15;7.82;;;;;;;11.90;72.49;99658.81;4976557;28;20170;-65
2022/03/29 07:08:05;;;;;;;18.45;8.32;;;;;;;12.14;71.16;99656.84;4993212;28;20040;-65
2022/03/29 07:13:15;;;;;;;13.68;8.45;;;;;;;12.63;69.04;99667.03;4993628;28;20025;-65
2022/03/29 07:15:40;;;;;;;17.92;7.80;;;;;;;12.89;67.20;99664.00;4994288;28;20022;-66
2022/03/29 07:18:06;;;;;;;16.08;8.90;;;;;;;13.13;66.53;99660.19;4993563;28;20266;-66
2022/03/29 07:20:32;;;;;;;12.93;8.35;;;;;;;13.41;65.56;99664.19;4993900;28;20445;-65
2022/03/29 07:22:57;;;;;;;14.82;8.32;;;;;;;13.64;64.39;99669.25;4993382;28;20038;-65
2022/03/29 07:25:25;;;;;;;17.23;8.52;;;;;;;13.70;64.33;99668.94;4992042;28;20038;-65
2022/03/29 07:27:53;;;;;;;15.95;9.05;;;;;;;13.71;62.98;99667.97;4993700;28;20106;-65
2022/03/29 07:30:19;;;;;;;19.02;10.95;;;;;;;13.68;62.26;99665.47;4993602;28;20386;-65
2022/03/29 07:32:47;;;;;;;18.38;10.48;;;;;;;13.83;63.10;99664.69;4993735;28;20044;-65
2022/03/29 07:35:14;;;;;;;17.13;9.95;;;;;;;13.97;61.77;99667.53;4993851;28;20032;-65
2022/03/29 07:37:40;;;;;;;24.52;10.77;;;;;;;14.17;61.60;99660.19;4993216;28;20021;-65
2022/03/29 07:40:08;;;;;;;23.35;10.98;;;;;;;14.39;60.95;99649.22;4993259;28;20025;-65
2022/03/29 07:42:35;;;;;;;21.38;11.90;;;;;;;14.68;57.83;99661.88;4994046;28;20054;-64
2022/03/29 07:45:05;;;;;;;25.33;12.68;;;;;;;14.77;53.94;99666.75;4993402;28;20026;-65
2022/03/29 07:47:31;;;;;;;17.35;9.45;;;;;;;15.04;53.17;99665.19;4993515;28;20030;-65
2022/03/29 07:49:57;;;;;;;12.43;8.18;;;;;;;15.31;50.42;99671.69;4993104;28;20065;-65
2022/03/29 07:52:22;;;;;;;17.08;8.90;;;;;;;15.71;52.68;99673.84;4993217;28;20026;-65
2022/03/29 07:54:48;;;;;;;16.08;8.32;;;;;;;16.05;52.01;99661.06;4992911;28;20054;-65
2022/03/29 07:57:14;;;;;;;20.40;9.30;;;;;;;16.07;49.75;99670.75;4993361;28;20076;-65
2022/03/29 07:59:40;;;;;;;15.05;8.73;;;;;;;16.01;51.24;99664.91;4993492;28;20109;-65
2022/03/29 08:02:06;;;;;;;12.95;8.40;;;;;;;15.82;50.52;99671.38;4993134;28;20121;-65
2022/03/29 08:04:35;;;;;;;15.40;8.35;;;;;;;15.73;49.63;99661.16;4992818;28;20026;-65
2022/03/29 08:07:00;;;;;;;15.15;8.68;;;;;;;15.71;50.40;99660.44;4992819;28;20034;-65
2022/03/29 08:09:29;;;;;;;18.88;8.35;;;;;;;15.68;50.71;99668.63;4993225;28;20605;-65
2022/03/29 08:11:55;;;;;;;17.17;9.40;;;;;;;15.54;51.95;99663.22;4992630;28;20037;-65
2022/03/29 08:14:22;;;;;;;19.80;9.55;;;;;;;15.59;53.54;99662.94;4992081;28;20478;-65
2022/03/29 08:16:48;;;;;;;20.33;11.00;;;;;;;15.60;54.16;99659.31;4992969;28;20097;-64
2022/03/29 08:19:15;;;;;;;15.65;10.40;;;;;;;15.74;54.75;99652.19;4992618;28;20034;-64
2022/03/29 08:21:49;;;;;;;20.70;10.90;;;;;;;15.83;54.47;99651.63;4992879;28;20041;-64
2022/03/29 08:24:23;;;;;;;20.05;10.73;;;;;;;15.82;51.65;99638.31;4991956;28;20030;-64
2022/03/29 08:26:54;;;;;;;17.13;9.70;;;;;;;15.69;52.23;99642.69;4992296;28;20022;-64
2022/03/29 08:29:21;;;;;;;15.98;9.43;;;;;;;15.73;50.51;99645.09;4992816;28;20018;-64
2022/03/29 08:31:49;;;;;;;18.30;9.45;;;;;;;15.74;50.14;99643.28;4992569;28;20391;-64
2022/03/29 08:34:15;;;;;;;16.40;9.52;;;;;;;15.91;50.74;99635.09;4992643;28;20041;-64
2022/03/29 08:36:41;;;;;;;16.58;9.90;;;;;;;15.99;50.47;99642.66;4992502;28;20057;-64
2022/03/29 08:39:08;;;;;;;15.93;9.45;;;;;;;16.14;50.92;99633.69;4992476;28;20030;-64
2022/03/29 08:41:39;;;;;;;20.20;8.82;;;;;;;16.22;49.99;99640.31;4992870;28;20453;-64
2022/03/29 08:44:09;;;;;;;15.52;8.35;;;;;;;16.27;49.08;99634.66;4992446;28;20467;-64
2022/03/29 08:46:38;;;;;;;17.40;8.73;;;;;;;16.31;49.90;99631.69;4992505;28;20034;-64
2022/03/29 08:49:06;;;;;;;15.00;8.27;;;;;;;16.40;49.59;99627.56;4992449;28;20057;-64
2022/03/29 08:51:32;;;;;;;17.75;9.98;;;;;;;16.51;48.71;99633.16;4992734;28;20030;-64
2022/03/29 08:53:58;;;;;;;17.05;9.85;;;;;;;16.77;49.01;99624.34;4992524;28;20551;-64
2022/03/29 08:56:24;;;;;;;21.00;10.15;;;;;;;16.76;48.69;99606.47;4992050;28;20030;-64
2022/03/29 08:58:49;;;;;;;14.80;8.98;;;;;;;16.78;47.73;99607.25;4992172;28;20500;-64
2022/03/29 09:01:20;;;;;;;14.23;8.32;;;;;;;16.75;48.16;99608.28;4992248;28;20105;-64
2022/03/29 09:03:47;;;;;;;19.48;10.13;;;;;;;16.77;47.26;99614.44;4992481;28;20137;-64
2022/03/29 09:06:13;;;;;;;16.45;9.80;;;;;;;16.84;46.48;99604.16;4991805;28;20030;-64
2022/03/29 09:08:47;;;;;;;18.67;9.82;;;;;;;17.07;45.92;99609.78;4991874;28;20018;-64
2022/03/29 09:11:13;;;;;;;16.20;9.40;;;;;;;16.99;45.70;99603.16;4991984;28;20108;-64
2022/03/29 09:13:40;;;;;;;17.20;9.68;;;;;;;16.91;45.49;99597.44;4992020;28;20042;-64
2022/03/29 09:16:08;;;;;;;15.55;8.95;;;;;;;16.56;44.97;99590.78;4991992;28;20030;-64
2022/03/29 09:18:34;;;;;;;16.25;9.00;;;;;;;16.44;46.62;99591.53;4992165;28;20084;-64
2022/03/29 09:21:14;;;;;;;17.05;9.13;;;;;;;16.63;46.91;99600.16;4992170;28;20045;-64
2022/03/29 09:23:41;;;;;;;14.68;7.85;;;;;;;16.85;45.33;99603.22;4991753;28;20026;-64
2022/03/29 09:26:07;;;;;;;16.98;8.75;;;;;;;16.82;45.51;99595.34;4991626;28;20512;-64
2022/03/29 09:28:37;;;;;;;15.20;9.23;;;;;;;17.06;45.67;99593.75;4992118;28;20022;-64
2022/03/29 09:31:22;;;;;;;15.93;8.57;;;;;;;17.12;44.93;99597.88;4992107;28;20026;-64
2022/03/29 09:33:48;;;;;;;16.08;8.65;;;;;;;17.31;44.97;99584.94;4992033;28;20033;-64
2022/03/29 09:36:20;;;;;;;12.82;8.30;;;;;;;17.57;44.75;99576.88;4992081;28;20034;-64
2022/03/29 09:38:47;;;;;;;12.90;7.85;;;;;;;17.92;44.22;99569.91;4991965;28;20401;-64
2022/03/29 09:41:28;;;;;;;13.70;8.02;;;;;;;18.30;43.00;99564.53;4991875;28;20030;-64
2022/03/29 09:44:11;;;;;;;15.05;8.05;;;;;;;18.48;41.71;99560.56;4991651;28;20056;-64
2022/03/29 09:46:59;;;;;;;14.55;7.70;;;;;;;18.74;42.38;99558.66;4991860;28;20026;-64
2022/03/29 09:49:26;;;;;;;16.90;7.88;;;;;;;19.28;40.69;99555.44;4991784;28;20042;-64
2022/03/29 09:52:14;;;;;;;14.00;8.32;;;;;;;20.13;43.66;99547.00;4991958;28;20389;-64
2022/03/29 09:54:40;;;;;;;14.70;8.57;;;;;;;20.64;39.40;99537.44;4991427;28;20034;-64
2022/03/29 09:57:05;;;;;;;17.88;8.50;;;;;;;20.91;39.93;99531.63;4990440;28;20029;-64
2022/03/29 09:59:32;;;;;;;14.43;7.88;;;;;;;20.60;38.51;99533.31;4991100;28;20437;-64
2022/03/29 10:01:58;;;;;;;15.15;7.55;;;;;;;20.47;40.30;99532.56;4991767;28;20030;-64
2022/03/29 10:04:26;;;;;;;13.20;7.80;;;;;;;20.82;39.47;99527.00;4991625;28;20030;-64
2022/03/29 10:06:55;;;;;;;15.25;7.47;;;;;;;21.04;38.49;99513.44;4991806;28;20026;-64
2022/03/29 10:09:35;;;;;;;13.52;8.00;;;;;;;21.12;39.29;99512.81;4991767;28;20389;-64
2022/03/29 10:12:04;;;;;;;13.05;7.97;;;;;;;21.51;39.41;99506.75;4990800;28;20054;-64
2022/03/29 10:14:34;;;;;;;12.68;7.25;;;;;;;22.01;38.57;99509.53;4991201;28;20030;-64
2022/03/29 10:17:00;;;;;;;15.90;8.45;;;;;;;22.44;36.60;99500.34;4991940;28;20029;-64
2022/03/29 10:19:25;;;;;;;11.95;6.90;;;;;;;22.60;37.10;99498.84;4993726;28;20109;-64
2022/03/29 10:21:56;;;;;;;12.48;7.68;;;;;;;22.70;37.35;99497.00;4994987;28;20022;-64
2022/03/29 10:24:23;;;;;;;12.80;8.63;;;;;;;22.79;37.38;99490.78;4993927;28;20604;-64
2022/03/29 10:26:50;;;;;;;16.60;8.32;;;;;;;22.99;35.60;99481.69;4995017;28;20035;-64
2022/03/29 10:29:16;;;;;;;13.38;7.22;;;;;;;23.24;34.26;99478.38;4977433;28;20076;-64
2022/03/29 10:31:55;;;;;;;14.52;8.15;;;;;;;23.86;34.55;99474.34;4993587;28;20425;-64
2022/03/29 10:34:26;;;;;;;16.85;7.72;;;;;;;24.47;34.09;99467.44;4994892;28;20072;-64
2022/03/29 10:37:13;;;;;;;13.07;7.32;;;;;;;24.84;33.61;99460.13;4994193;28;20026;-64
2022/03/29 10:39:46;;;;;;;13.68;7.65;;;;;;;24.87;33.14;99458.94;4994850;28;20030;-64
2022/03/29 10:42:33;;;;;;;13.32;7.70;;;;;;;24.84;33.30;99442.94;4995012;28;20093;-64
2022/03/29 10:45:09;;;;;;;15.18;7.53;;;;;;;24.75;33.15;99441.97;4994921;28;20034;-64
2022/03/29 10:47:35;;;;;;;15.32;7.75;;;;;;;24.73;32.78;99438.56;4994723;28;20061;-64
2022/03/29 10:50:02;;;;;;;11.95;7.75;;;;;;;24.61;33.14;99439.75;4994354;28;20777;-64
2022/03/29 10:52:36;;;;;;;16.13;7.97;;;;;;;24.88;32.26;99430.72;4994691;28;20150;-64
2022/03/29 10:55:21;;;;;;;16.17;8.60;;;;;;;24.75;31.46;99427.50;4994577;28;20102;-64
2022/03/29 10:58:16;;;;;;;13.13;7.35;;;;;;;24.80;31.40;99425.19;4994471;28;20030;-64
2022/03/29 11:00:45;;;;;;;14.05;8.10;;;;;;;24.95;31.86;99421.78;4994299;28;20092;-64
2022/03/29 11:03:21;;;;;;;15.15;7.68;;;;;;;25.02;31.69;99420.19;4994502;28;20030;-64
2022/03/29 11:06:12;;;;;;;14.95;8.20;;;;;;;25.19;31.40;99411.13;4993892;28;20022;-64
2022/03/29 11:08:46;;;;;;;12.13;6.95;;;;;;;25.35;31.62;99415.91;4993314;28;20117;-64
2022/03/29 11:11:44;;;;;;;15.05;8.25;;;;;;;25.59;30.28;99408.78;4993985;28;20033;-64
2022/03/29 11:14:29;;;;;;;12.63;7.43;;;;;;;25.62;28.88;99403.00;4993962;28;20022;-64
2022/03/29 11:17:17;;;;;;;15.15;8.82;;;;;;;25.69;28.88;99393.19;4994213;28;20458;-64
2022/03/29 11:19:53;;;;;;;12.95;7.05;;;;;;;25.62;29.77;99391.25;4981676;28;20081;-64
2022/03/29 11:22:21;;;;;;;13.73;7.20;;;;;;;25.25;30.84;99399.63;4993707;28;20050;-64
2022/03/29 11:24:52;;;;;;;14.18;7.47;;;;;;;25.53;31.68;99392.22;4993186;28;20030;-64
2022/03/29 11:27:32;;;;;;;13.30;7.40;;;;;;;25.67;31.17;99383.44;4993998;28;20044;-64
2022/03/29 11:29:59;;;;;;;15.82;8.25;;;;;;;25.70;30.93;99377.69;4993015;28;20598;-65
2022/03/29 11:32:24;;;;;;;14.88;8.02;;;;;;;25.54;28.99;99378.44;4993777;28;20069;-65
2022/03/29 11:34:56;;;;;;;13.23;8.07;;;;;;;25.46;29.59;99369.34;4993737;28;20030;-64
2022/03/29 11:37:33;;;;;;;17.27;8.85;;;;;;;25.31;30.64;99377.22;4993602;28;20026;-64